createdAt,value
2018-01-08T00:00:19.820Z,1021.59
2018-01-08T00:01:19.791Z,1021.55
2018-01-08T00:02:19.764Z,1021.55
2018-01-08T00:03:19.741Z,1021.55
2018-01-08T00:04:19.724Z,1021.58
2018-01-08T00:05:19.691Z,1021.58
2018-01-08T00:06:19.670Z,1021.58
2018-01-08T00:07:19.644Z,1021.54
2018-01-08T00:08:19.617Z,1021.54
2018-01-08T00:09:19.589Z,1021.49
2018-01-08T00:10:19.569Z,1021.48
2018-01-08T00:11:19.548Z,1021.53
2018-01-08T00:12:19.521Z,1021.45
2018-01-08T00:13:19.498Z,1021.46
2018-01-08T00:14:19.470Z,1021.43
2018-01-08T00:15:19.450Z,1021.45
2018-01-08T00:16:19.426Z,1021.44
2018-01-08T00:17:19.392Z,1021.47
2018-01-08T00:18:19.373Z,1021.48
2018-01-08T00:19:19.342Z,1021.51
2018-01-08T00:20:19.331Z,1021.54
2018-01-08T00:21:19.298Z,1021.52
2018-01-08T00:22:19.274Z,1021.46
2018-01-08T00:23:19.250Z,1021.47
2018-01-08T00:24:19.221Z,1021.41
2018-01-08T00:25:19.203Z,1021.43
2018-01-08T00:26:19.175Z,1021.39
2018-01-08T00:27:19.148Z,1021.40
2018-01-08T00:28:19.132Z,1021.35
2018-01-08T00:29:19.101Z,1021.42
2018-01-08T00:30:19.081Z,1021.34
2018-01-08T00:31:19.049Z,1021.32
2018-01-08T00:32:19.032Z,1021.25
2018-01-08T00:33:19.000Z,1021.23
2018-01-08T00:34:18.985Z,1021.25
2018-01-08T00:35:18.952Z,1021.21
2018-01-08T00:36:18.936Z,1021.25
2018-01-08T00:37:18.899Z,1021.21
2018-01-08T00:38:18.882Z,1021.19
2018-01-08T00:39:18.851Z,1021.24
2018-01-08T00:40:18.829Z,1021.26
2018-01-08T00:41:18.807Z,1021.23
2018-01-08T00:42:18.781Z,1021.17
2018-01-08T00:43:18.760Z,1021.16
2018-01-08T00:44:18.728Z,1021.16
2018-01-08T00:45:18.704Z,1021.21
2018-01-08T00:46:18.681Z,1021.18
2018-01-08T00:47:18.662Z,1021.09
2018-01-08T00:48:18.641Z,1021.14
2018-01-08T00:49:18.605Z,1021.13
2018-01-08T00:50:18.591Z,1021.08
2018-01-08T00:51:18.559Z,1021.03
2018-01-08T00:52:18.542Z,1021.05
2018-01-08T00:53:18.567Z,1021.09
2018-01-08T00:54:18.487Z,1021.07
2018-01-08T00:55:18.465Z,1020.99
2018-01-08T00:56:18.441Z,1021.05
2018-01-08T00:57:18.410Z,1021.05
2018-01-08T00:58:18.386Z,1021.00
2018-01-08T00:59:18.362Z,1020.98
2018-01-08T01:00:18.336Z,1021.05
2018-01-08T01:01:18.310Z,1021.02
2018-01-08T01:02:18.291Z,1021.05
2018-01-08T01:03:18.264Z,1021.00
2018-01-08T01:04:18.239Z,1021.09
2018-01-08T01:05:18.214Z,1021.10
2018-01-08T01:06:18.190Z,1021.07
2018-01-08T01:07:18.166Z,1021.05
2018-01-08T01:08:18.141Z,1021.08
2018-01-08T01:09:18.114Z,1020.99
2018-01-08T01:10:18.092Z,1021.04
2018-01-08T01:11:18.072Z,1021.10
2018-01-08T01:12:18.043Z,1021.07
2018-01-08T01:13:18.020Z,1021.04
2018-01-08T01:14:17.992Z,1021.04
2018-01-08T01:15:17.969Z,1021.01
2018-01-08T01:16:17.945Z,1020.99
2018-01-08T01:17:17.920Z,1020.98
2018-01-08T01:18:17.896Z,1021.06
2018-01-08T01:19:17.870Z,1021.00
2018-01-08T01:20:17.851Z,1020.97
2018-01-08T01:21:17.822Z,1020.99
2018-01-08T01:22:17.798Z,1020.95
2018-01-08T01:23:17.776Z,1020.97
2018-01-08T01:24:17.750Z,1020.96
2018-01-08T01:25:17.736Z,1020.94
2018-01-08T01:26:17.700Z,1020.88
2018-01-08T01:27:17.676Z,1020.94
2018-01-08T01:28:17.653Z,1020.93
2018-01-08T01:29:17.630Z,1020.91
2018-01-08T01:30:17.609Z,1020.90
2018-01-08T01:31:17.579Z,1020.95
2018-01-08T01:32:17.553Z,1020.92
2018-01-08T01:33:17.528Z,1020.88
2018-01-08T01:34:17.506Z,1020.84
2018-01-08T01:35:17.480Z,1020.84
2018-01-08T01:36:17.458Z,1020.84
2018-01-08T01:37:17.466Z,1020.89
2018-01-08T01:38:17.408Z,1020.87
2018-01-08T01:39:17.391Z,1020.86
2018-01-08T01:40:17.383Z,1020.88
2018-01-08T01:41:17.339Z,1020.79
2018-01-08T01:42:17.310Z,1020.89
2018-01-08T01:43:17.290Z,1020.86
2018-01-08T01:44:17.261Z,1020.86
2018-01-08T01:45:17.251Z,1020.86
2018-01-08T01:46:17.219Z,1020.91
2018-01-08T01:47:17.268Z,1020.96
2018-01-08T01:48:17.170Z,1020.95
2018-01-08T01:49:17.289Z,1020.91
2018-01-08T01:50:17.120Z,1020.86
2018-01-08T01:51:17.097Z,1020.86
2018-01-08T01:52:17.069Z,1020.91
2018-01-08T01:53:17.112Z,1020.87
2018-01-08T01:54:17.018Z,1020.92
2018-01-08T01:55:17.101Z,1020.86
2018-01-08T01:56:16.969Z,1020.92
2018-01-08T01:57:17.100Z,1020.92
2018-01-08T01:58:16.918Z,1020.94
2018-01-08T01:59:16.901Z,1020.89
2018-01-08T02:00:16.877Z,1020.84
2018-01-08T02:01:16.968Z,1020.85
2018-01-08T02:02:16.822Z,1020.82
2018-01-08T02:03:16.909Z,1020.86
2018-01-08T02:04:16.791Z,1020.83
2018-01-08T02:05:16.756Z,1020.85
2018-01-08T02:06:16.731Z,1020.81
2018-01-08T02:07:16.700Z,1020.89
2018-01-08T02:08:16.681Z,1020.78
2018-01-08T02:09:16.652Z,1020.83
2018-01-08T02:10:16.631Z,1020.81
2018-01-08T02:11:16.609Z,1020.84
2018-01-08T02:12:16.580Z,1020.78
2018-01-08T02:13:16.562Z,1020.76
2018-01-08T02:14:16.532Z,1020.79
2018-01-08T02:15:16.513Z,1020.81
2018-01-08T02:16:16.482Z,1020.74
2018-01-08T02:17:16.460Z,1020.76
2018-01-08T02:18:16.430Z,1020.80
2018-01-08T02:19:16.411Z,1020.81
2018-01-08T02:20:16.382Z,1020.78
2018-01-08T02:21:16.360Z,1020.84
2018-01-08T02:22:16.337Z,1020.85
2018-01-08T02:23:16.309Z,1020.85
2018-01-08T02:24:16.291Z,1020.85
2018-01-08T02:25:16.260Z,1020.81
2018-01-08T02:26:16.236Z,1020.78
2018-01-08T02:27:16.216Z,1020.80
2018-01-08T02:28:16.193Z,1020.79
2018-01-08T02:29:16.162Z,1020.84
2018-01-08T02:30:16.142Z,1020.83
2018-01-08T02:31:16.122Z,1020.93
2018-01-08T02:32:16.088Z,1020.91
2018-01-08T02:33:16.062Z,1020.90
2018-01-08T02:34:16.049Z,1020.91
2018-01-08T02:35:16.019Z,1020.93
2018-01-08T02:36:15.992Z,1020.89
2018-01-08T02:37:15.968Z,1020.92
2018-01-08T02:38:15.945Z,1020.92
2018-01-08T02:39:15.920Z,1020.92
2018-01-08T02:40:15.895Z,1020.94
2018-01-08T02:41:15.871Z,1021.03
2018-01-08T02:42:15.847Z,1020.98
2018-01-08T02:43:15.831Z,1020.95
2018-01-08T02:44:15.801Z,1020.97
2018-01-08T02:45:15.780Z,1020.92
2018-01-08T02:46:15.750Z,1020.92
2018-01-08T02:47:15.727Z,1020.95
2018-01-08T02:48:15.712Z,1020.93
2018-01-08T02:49:15.678Z,1020.88
2018-01-08T02:50:15.654Z,1020.89
2018-01-08T02:51:15.630Z,1020.91
2018-01-08T02:52:15.613Z,1020.94
2018-01-08T02:53:15.583Z,1020.91
2018-01-08T02:54:15.561Z,1020.94
2018-01-08T02:55:15.543Z,1020.90
2018-01-08T02:56:15.510Z,1020.85
2018-01-08T02:57:15.486Z,1020.92
2018-01-08T02:58:15.458Z,1020.87
2018-01-08T02:59:15.440Z,1020.87
2018-01-08T03:00:15.462Z,1020.95
2018-01-08T03:01:15.390Z,1020.91
2018-01-08T03:02:15.376Z,1020.88
2018-01-08T03:03:15.341Z,1020.87
2018-01-08T03:04:15.317Z,1020.89
2018-01-08T03:05:15.289Z,1020.88
2018-01-08T03:06:15.281Z,1020.90
2018-01-08T03:07:15.241Z,1020.88
2018-01-08T03:08:15.224Z,1020.90
2018-01-08T03:09:15.198Z,1020.92
2018-01-08T03:10:15.167Z,1020.87
2018-01-08T03:11:15.146Z,1020.89
2018-01-08T03:12:15.169Z,1020.88
2018-01-08T03:13:15.102Z,1020.90
2018-01-08T03:14:15.072Z,1020.90
2018-01-08T03:15:15.049Z,1020.92
2018-01-08T03:16:15.029Z,1020.93
2018-01-08T03:17:15.003Z,1020.95
2018-01-08T03:18:14.983Z,1020.93
2018-01-08T03:19:14.951Z,1020.93
2018-01-08T03:20:15.025Z,1020.93
2018-01-08T03:21:14.900Z,1020.91
2018-01-08T03:22:14.877Z,1020.91
2018-01-08T03:23:14.849Z,1020.87
2018-01-08T03:24:14.980Z,1020.87
2018-01-08T03:25:14.803Z,1020.92
2018-01-08T03:26:14.780Z,1020.89
2018-01-08T03:27:14.755Z,1020.88
2018-01-08T03:28:14.730Z,1020.81
2018-01-08T03:29:14.707Z,1020.86
2018-01-08T03:30:14.681Z,1020.89
2018-01-08T03:31:14.654Z,1020.84
2018-01-08T03:32:14.631Z,1020.87
2018-01-08T03:33:14.610Z,1020.76
2018-01-08T03:34:14.580Z,1020.81
2018-01-08T03:35:14.565Z,1020.86
2018-01-08T03:36:14.537Z,1020.86
2018-01-08T03:37:14.512Z,1020.86
2018-01-08T03:38:14.488Z,1020.88
2018-01-08T03:39:14.462Z,1020.84
2018-01-08T03:40:14.440Z,1020.86
2018-01-08T03:41:14.412Z,1020.87
2018-01-08T03:42:14.392Z,1020.88
2018-01-08T03:43:14.371Z,1020.91
2018-01-08T03:44:14.348Z,1020.88
2018-01-08T03:45:14.316Z,1020.89
2018-01-08T03:46:14.297Z,1020.92
2018-01-08T03:47:14.267Z,1020.90
2018-01-08T03:48:14.243Z,1020.90
2018-01-08T03:49:14.220Z,1020.84
2018-01-08T03:50:14.197Z,1020.89
2018-01-08T03:51:14.172Z,1020.90
2018-01-08T03:52:14.148Z,1020.87
2018-01-08T03:53:14.121Z,1020.83
2018-01-08T03:54:14.098Z,1020.83
2018-01-08T03:55:14.070Z,1020.87
2018-01-08T03:56:14.051Z,1020.82
2018-01-08T03:57:14.021Z,1020.82
2018-01-08T03:58:13.995Z,1020.84
2018-01-08T03:59:13.975Z,1020.87
2018-01-08T04:00:13.947Z,1020.84
2018-01-08T04:01:13.922Z,1020.84
2018-01-08T04:02:13.900Z,1020.88
2018-01-08T04:03:13.879Z,1020.91
2018-01-08T04:04:13.858Z,1020.88
2018-01-08T04:05:13.834Z,1020.89
2018-01-08T04:06:13.814Z,1020.87
2018-01-08T04:07:13.779Z,1020.82
2018-01-08T04:08:13.758Z,1020.80
2018-01-08T04:09:13.732Z,1020.84
2018-01-08T04:10:13.705Z,1020.88
2018-01-08T04:11:13.690Z,1020.82
2018-01-08T04:12:13.656Z,1020.86
2018-01-08T04:13:13.629Z,1020.85
2018-01-08T04:14:13.610Z,1020.87
2018-01-08T04:15:13.591Z,1020.87
2018-01-08T04:16:13.558Z,1020.87
2018-01-08T04:17:13.534Z,1020.86
2018-01-08T04:18:13.511Z,1020.90
2018-01-08T04:19:13.489Z,1020.88
2018-01-08T04:20:13.460Z,1020.91
2018-01-08T04:21:13.436Z,1020.89
2018-01-08T04:22:13.409Z,1020.93
2018-01-08T04:23:13.386Z,1020.92
2018-01-08T04:24:13.361Z,1020.91
2018-01-08T04:25:13.340Z,1020.91
2018-01-08T04:26:13.315Z,1020.94
2018-01-08T04:27:13.293Z,1020.96
2018-01-08T04:28:13.273Z,1020.95
2018-01-08T04:29:13.239Z,1020.93
2018-01-08T04:30:13.221Z,1020.95
2018-01-08T04:31:13.199Z,1020.97
2018-01-08T04:32:13.168Z,1020.94
2018-01-08T04:33:13.142Z,1020.92
2018-01-08T04:34:13.121Z,1020.88
2018-01-08T04:35:13.094Z,1020.88
2018-01-08T04:36:13.069Z,1020.94
2018-01-08T04:37:13.048Z,1020.84
2018-01-08T04:38:13.024Z,1020.90
2018-01-08T04:39:12.997Z,1020.87
2018-01-08T04:40:12.976Z,1020.88
2018-01-08T04:41:12.951Z,1020.87
2018-01-08T04:42:12.926Z,1020.82
2018-01-08T04:43:12.897Z,1020.83
2018-01-08T04:44:12.875Z,1020.85
2018-01-08T04:45:12.849Z,1020.81
2018-01-08T04:46:12.825Z,1020.83
2018-01-08T04:47:12.804Z,1020.85
2018-01-08T04:48:12.782Z,1020.89
2018-01-08T04:49:12.754Z,1020.87
2018-01-08T04:50:12.732Z,1020.89
2018-01-08T04:51:12.706Z,1020.87
2018-01-08T04:52:12.691Z,1020.86
2018-01-08T04:53:12.660Z,1020.87
2018-01-08T04:54:12.634Z,1020.87
2018-01-08T04:55:12.611Z,1020.89
2018-01-08T04:56:12.588Z,1020.87
2018-01-08T04:57:12.559Z,1020.89
2018-01-08T04:58:12.538Z,1020.88
2018-01-08T04:59:12.511Z,1020.83
2018-01-08T05:00:12.485Z,1020.83
2018-01-08T05:01:12.472Z,1020.88
2018-01-08T05:02:12.435Z,1020.83
2018-01-08T05:03:12.413Z,1020.84
2018-01-08T05:04:12.392Z,1020.77
2018-01-08T05:05:12.369Z,1020.83
2018-01-08T05:06:12.340Z,1020.81
2018-01-08T05:07:12.320Z,1020.86
2018-01-08T05:08:12.292Z,1020.78
2018-01-08T05:09:12.269Z,1020.82
2018-01-08T05:10:12.246Z,1020.78
2018-01-08T05:11:12.218Z,1020.77
2018-01-08T05:12:12.201Z,1020.83
2018-01-08T05:13:12.169Z,1020.78
2018-01-08T05:14:12.146Z,1020.79
2018-01-08T05:15:12.130Z,1020.77
2018-01-08T05:16:12.102Z,1020.82
2018-01-08T05:17:12.076Z,1020.74
2018-01-08T05:18:12.052Z,1020.70
2018-01-08T05:19:12.029Z,1020.71
2018-01-08T05:20:12.007Z,1020.72
2018-01-08T05:21:11.980Z,1020.68
2018-01-08T05:22:11.961Z,1020.71
2018-01-08T05:23:11.932Z,1020.70
2018-01-08T05:24:11.911Z,1020.72
2018-01-08T05:25:11.880Z,1020.69
2018-01-08T05:26:11.862Z,1020.68
2018-01-08T05:27:11.839Z,1020.65
2018-01-08T05:28:11.809Z,1020.62
2018-01-08T05:29:11.791Z,1020.65
2018-01-08T05:30:11.759Z,1020.67
2018-01-08T05:31:11.749Z,1020.67
2018-01-08T05:32:11.716Z,1020.64
2018-01-08T05:33:11.689Z,1020.67
2018-01-08T05:34:11.663Z,1020.64
2018-01-08T05:35:11.640Z,1020.66
2018-01-08T05:36:11.617Z,1020.60
2018-01-08T05:37:11.590Z,1020.64
2018-01-08T05:38:11.566Z,1020.62
2018-01-08T05:39:11.541Z,1020.67
2018-01-08T05:40:11.520Z,1020.72
2018-01-08T05:41:11.500Z,1020.71
2018-01-08T05:42:11.472Z,1020.68
2018-01-08T05:43:11.457Z,1020.66
2018-01-08T05:44:11.425Z,1020.64
2018-01-08T05:45:11.399Z,1020.65
2018-01-08T05:46:11.381Z,1020.68
2018-01-08T05:47:11.351Z,1020.65
2018-01-08T05:48:11.328Z,1020.57
2018-01-08T05:49:11.305Z,1020.59
2018-01-08T05:50:11.279Z,1020.61
2018-01-08T05:51:11.252Z,1020.62
2018-01-08T05:52:11.228Z,1020.58
2018-01-08T05:53:11.207Z,1020.64
2018-01-08T05:54:11.186Z,1020.61
2018-01-08T05:55:11.155Z,1020.54
2018-01-08T05:56:11.140Z,1020.60
2018-01-08T05:57:11.107Z,1020.59
2018-01-08T05:58:11.088Z,1020.61
2018-01-08T05:59:11.062Z,1020.54
2018-01-08T06:00:11.039Z,1020.55
2018-01-08T06:01:11.015Z,1020.60
2018-01-08T06:02:10.992Z,1020.59
2018-01-08T06:03:10.968Z,1020.60
2018-01-08T06:04:10.952Z,1020.65
2018-01-08T06:05:10.919Z,1020.65
2018-01-08T06:06:10.893Z,1020.61
2018-01-08T06:07:10.870Z,1020.65
2018-01-08T06:08:10.849Z,1020.62
2018-01-08T06:09:10.820Z,1020.66
2018-01-08T06:10:10.800Z,1020.68
2018-01-08T06:11:10.771Z,1020.70
2018-01-08T06:12:10.748Z,1020.66
2018-01-08T06:13:10.732Z,1020.70
2018-01-08T06:14:10.700Z,1020.70
2018-01-08T06:15:10.677Z,1020.71
2018-01-08T06:16:10.731Z,1020.71
2018-01-08T06:17:10.630Z,1020.71
2018-01-08T06:18:10.608Z,1020.68
2018-01-08T06:19:10.581Z,1020.70
2018-01-08T06:20:10.557Z,1020.70
2018-01-08T06:21:10.528Z,1020.69
2018-01-08T06:22:10.508Z,1020.70
2018-01-08T06:23:10.481Z,1020.69
2018-01-08T06:24:10.610Z,1020.67
2018-01-08T06:25:10.431Z,1020.70
2018-01-08T06:26:10.507Z,1020.71
2018-01-08T06:27:10.386Z,1020.69
2018-01-08T06:28:10.459Z,1020.77
2018-01-08T06:29:10.338Z,1020.74
2018-01-08T06:30:10.320Z,1020.70
2018-01-08T06:31:10.287Z,1020.73
2018-01-08T06:32:10.355Z,1020.73
2018-01-08T06:33:10.240Z,1020.73
2018-01-08T06:34:10.342Z,1020.77
2018-01-08T06:35:10.191Z,1020.75
2018-01-08T06:36:10.167Z,1020.72
2018-01-08T06:37:10.146Z,1020.71
2018-01-08T06:38:10.122Z,1020.69
2018-01-08T06:39:10.100Z,1020.73
2018-01-08T06:40:10.071Z,1020.74
2018-01-08T06:41:10.050Z,1020.66
2018-01-08T06:42:10.032Z,1020.72
2018-01-08T06:43:10.004Z,1020.68
2018-01-08T06:44:09.980Z,1020.68
2018-01-08T06:45:09.948Z,1020.68
2018-01-08T06:46:09.925Z,1020.65
2018-01-08T06:47:09.900Z,1020.63
2018-01-08T06:48:09.880Z,1020.63
2018-01-08T06:49:09.859Z,1020.65
2018-01-08T06:50:09.839Z,1020.66
2018-01-08T06:51:09.799Z,1020.70
2018-01-08T06:52:09.776Z,1020.68
2018-01-08T06:53:09.751Z,1020.67
2018-01-08T06:54:09.729Z,1020.65
2018-01-08T06:55:09.704Z,1020.65
2018-01-08T06:56:09.680Z,1020.71
2018-01-08T06:57:09.662Z,1020.69
2018-01-08T06:58:09.631Z,1020.73
2018-01-08T06:59:09.608Z,1020.72
2018-01-08T07:00:09.582Z,1020.68
2018-01-08T07:01:09.560Z,1020.70
2018-01-08T07:02:09.544Z,1020.66
2018-01-08T07:03:09.512Z,1020.74
2018-01-08T07:04:09.486Z,1020.74
2018-01-08T07:05:09.462Z,1020.68
2018-01-08T07:06:09.439Z,1020.73
2018-01-08T07:07:09.410Z,1020.70
2018-01-08T07:08:09.391Z,1020.74
2018-01-08T07:09:09.362Z,1020.72
2018-01-08T07:10:09.340Z,1020.66
2018-01-08T07:11:09.310Z,1020.69
2018-01-08T07:12:09.286Z,1020.69
2018-01-08T07:13:09.260Z,1020.66
2018-01-08T07:14:09.240Z,1020.67
2018-01-08T07:15:09.220Z,1020.66
2018-01-08T07:16:09.190Z,1020.57
2018-01-08T07:17:09.174Z,1020.61
2018-01-08T07:18:09.140Z,1020.60
2018-01-08T07:19:09.118Z,1020.53
2018-01-08T07:20:09.090Z,1020.55
2018-01-08T07:21:09.091Z,1020.52
2018-01-08T07:22:09.041Z,1020.57
2018-01-08T07:23:09.022Z,1020.57
2018-01-08T07:24:08.994Z,1020.61
2018-01-08T07:25:08.971Z,1020.65
2018-01-08T07:26:08.942Z,1020.53
2018-01-08T07:27:08.930Z,1020.50
2018-01-08T07:28:08.893Z,1020.57
2018-01-08T07:29:08.870Z,1020.57
2018-01-08T07:30:08.852Z,1020.55
2018-01-08T07:31:08.817Z,1020.55
2018-01-08T07:32:08.796Z,1020.57
2018-01-08T07:33:08.769Z,1020.57
2018-01-08T07:34:08.746Z,1020.52
2018-01-08T07:35:08.725Z,1020.55
2018-01-08T07:36:08.700Z,1020.55
2018-01-08T07:37:08.723Z,1020.50
2018-01-08T07:38:08.646Z,1020.50
2018-01-08T07:39:08.619Z,1020.53
2018-01-08T07:40:08.600Z,1020.49
2018-01-08T07:41:08.572Z,1020.56
2018-01-08T07:42:08.549Z,1020.53
2018-01-08T07:43:08.570Z,1020.52
2018-01-08T07:44:08.501Z,1020.53
2018-01-08T07:45:08.472Z,1020.52
2018-01-08T07:46:08.447Z,1020.52
2018-01-08T07:47:08.473Z,1020.47
2018-01-08T07:48:08.402Z,1020.44
2018-01-08T07:49:08.442Z,1020.49
2018-01-08T07:50:08.348Z,1020.51
2018-01-08T07:51:08.328Z,1020.56
2018-01-08T07:52:08.297Z,1020.49
2018-01-08T07:53:08.317Z,1020.50
2018-01-08T07:54:08.249Z,1020.43
2018-01-08T07:55:08.227Z,1020.44
2018-01-08T07:56:08.202Z,1020.46
2018-01-08T07:57:08.179Z,1020.48
2018-01-08T07:58:08.152Z,1020.41
2018-01-08T07:59:08.126Z,1020.43
2018-01-08T08:00:08.106Z,1020.41
2018-01-08T08:01:08.080Z,1020.36
2018-01-08T08:02:08.074Z,1020.35
2018-01-08T08:03:08.028Z,1020.38
2018-01-08T08:04:08.003Z,1020.34
2018-01-08T08:05:07.980Z,1020.32
2018-01-08T08:06:07.955Z,1020.30
2018-01-08T08:07:07.929Z,1020.31
2018-01-08T08:08:07.908Z,1020.30
2018-01-08T08:09:07.878Z,1020.34
2018-01-08T08:10:07.852Z,1020.27
2018-01-08T08:11:07.831Z,1020.26
2018-01-08T08:12:07.807Z,1020.28
2018-01-08T08:13:07.838Z,1020.23
2018-01-08T08:14:07.759Z,1020.26
2018-01-08T08:15:07.734Z,1020.22
2018-01-08T08:16:07.715Z,1020.23
2018-01-08T08:17:07.683Z,1020.18
2018-01-08T08:18:07.664Z,1020.26
2018-01-08T08:19:07.638Z,1020.23
2018-01-08T08:20:07.609Z,1020.25
2018-01-08T08:21:07.585Z,1020.19
2018-01-08T08:22:07.561Z,1020.18
2018-01-08T08:23:07.541Z,1020.22
2018-01-08T08:24:07.513Z,1020.21
2018-01-08T08:25:07.491Z,1020.25
2018-01-08T08:26:07.472Z,1020.25
2018-01-08T08:27:07.442Z,1020.31
2018-01-08T08:28:07.419Z,1020.30
2018-01-08T08:29:07.396Z,1020.26
2018-01-08T08:30:07.369Z,1020.33
2018-01-08T08:31:07.341Z,1020.34
2018-01-08T08:32:07.319Z,1020.35
2018-01-08T08:33:07.299Z,1020.43
2018-01-08T08:34:07.277Z,1020.44
2018-01-08T08:35:07.251Z,1020.51
2018-01-08T08:36:07.236Z,1020.55
2018-01-08T08:37:07.202Z,1020.54
2018-01-08T08:38:07.179Z,1020.48
2018-01-08T08:39:07.160Z,1020.40
2018-01-08T08:40:07.142Z,1020.44
2018-01-08T08:41:07.112Z,1020.47
2018-01-08T08:42:07.091Z,1020.47
2018-01-08T08:43:07.079Z,1020.51
2018-01-08T08:44:07.053Z,1020.48
2018-01-08T08:45:07.023Z,1020.43
2018-01-08T08:46:07.003Z,1020.49
2018-01-08T08:47:06.978Z,1020.43
2018-01-08T08:48:06.966Z,1020.48
2018-01-08T08:49:06.932Z,1020.49
2018-01-08T08:50:06.907Z,1020.46
2018-01-08T08:51:06.890Z,1020.33
2018-01-08T08:52:06.869Z,1020.35
2018-01-08T08:53:06.840Z,1020.38
2018-01-08T08:54:06.836Z,1020.39
2018-01-08T08:55:06.800Z,1020.41
2018-01-08T08:56:06.780Z,1020.40
2018-01-08T08:57:06.751Z,1020.34
2018-01-08T08:58:06.739Z,1020.34
2018-01-08T08:59:06.713Z,1020.41
2018-01-08T09:00:06.687Z,1020.34
2018-01-08T09:01:06.674Z,1020.28
2018-01-08T09:02:06.652Z,1020.30
2018-01-08T09:03:06.622Z,1020.36
2018-01-08T09:04:06.601Z,1020.38
2018-01-08T09:05:06.582Z,1020.30
2018-01-08T09:06:06.553Z,1020.31
2018-01-08T09:07:06.531Z,1020.43
2018-01-08T09:08:06.515Z,1020.49
2018-01-08T09:09:06.490Z,1020.58
2018-01-08T09:10:06.473Z,1020.59
2018-01-08T09:11:06.450Z,1020.65
2018-01-08T09:12:06.431Z,1020.74
2018-01-08T09:13:06.413Z,1020.71
2018-01-08T09:14:06.380Z,1020.67
2018-01-08T09:15:06.361Z,1020.73
2018-01-08T09:16:06.344Z,1020.69
2018-01-08T09:17:06.322Z,1020.68
2018-01-08T09:18:06.302Z,1020.54
2018-01-08T09:19:06.281Z,1020.67
2018-01-08T09:20:06.262Z,1020.63
2018-01-08T09:21:06.249Z,1020.61
2018-01-08T09:22:06.230Z,1020.57
2018-01-08T09:23:06.203Z,1020.56
2018-01-08T09:24:06.186Z,1020.60
2018-01-08T09:25:06.170Z,1020.67
2018-01-08T09:26:06.148Z,1020.62
2018-01-08T09:27:06.132Z,1020.66
2018-01-08T09:28:06.111Z,1020.65
2018-01-08T09:29:06.092Z,1020.69
2018-01-08T09:30:06.077Z,1020.61
2018-01-08T09:31:06.070Z,1020.50
2018-01-08T09:32:06.038Z,1020.48
2018-01-08T09:33:06.022Z,1020.48
2018-01-08T09:34:06.014Z,1020.41
2018-01-08T09:35:05.985Z,1020.41
2018-01-08T09:36:05.961Z,1020.42
2018-01-08T09:37:05.943Z,1020.46
2018-01-08T09:38:05.980Z,1020.43
2018-01-08T09:39:05.921Z,1020.44
2018-01-08T09:40:05.892Z,1020.46
2018-01-08T09:41:05.870Z,1020.50
2018-01-08T09:42:05.851Z,1020.43
2018-01-08T09:43:05.828Z,1020.54
2018-01-08T09:44:05.811Z,1020.57
2018-01-08T09:45:05.790Z,1020.58
2018-01-08T09:46:05.784Z,1020.64
2018-01-08T09:47:05.761Z,1020.59
2018-01-08T09:48:05.741Z,1020.74
2018-01-08T09:49:05.718Z,1020.81
2018-01-08T09:50:05.699Z,1020.93
2018-01-08T09:51:05.681Z,1021.01
2018-01-08T09:52:05.659Z,1021.00
2018-01-08T09:53:05.642Z,1021.02
2018-01-08T09:54:05.626Z,1021.01
2018-01-08T09:55:05.856Z,1020.90
2018-01-08T09:56:05.592Z,1020.85
2018-01-08T09:57:05.570Z,1020.95
2018-01-08T09:58:05.552Z,1020.95
2018-01-08T09:59:05.548Z,1021.03
2018-01-08T10:00:05.526Z,1021.00
2018-01-08T10:01:05.501Z,1020.85
2018-01-08T10:02:05.481Z,1020.92
2018-01-08T10:03:05.459Z,1020.72
2018-01-08T10:04:05.451Z,1020.67
2018-01-08T10:05:05.430Z,1020.88
2018-01-08T10:06:05.411Z,1020.84
2018-01-08T10:07:05.398Z,1020.80
2018-01-08T10:08:05.383Z,1020.75
2018-01-08T10:09:05.401Z,1020.79
2018-01-08T10:10:05.351Z,1020.82
2018-01-08T10:11:05.323Z,1020.73
2018-01-08T10:12:05.301Z,1020.65
2018-01-08T10:13:05.289Z,1020.69
2018-01-08T10:14:05.267Z,1020.63
2018-01-08T10:15:05.252Z,1020.62
2018-01-08T10:16:05.237Z,1020.66
2018-01-08T10:17:05.219Z,1020.76
2018-01-08T10:18:05.202Z,1020.86
2018-01-08T10:19:05.188Z,1020.74
2018-01-08T10:20:05.159Z,1020.75
2018-01-08T10:21:05.148Z,1020.69
2018-01-08T10:22:05.128Z,1020.82
2018-01-08T10:23:05.111Z,1020.80
2018-01-08T10:24:05.091Z,1020.57
2018-01-08T10:25:05.074Z,1020.34
2018-01-08T10:26:05.059Z,1020.34
2018-01-08T10:27:05.045Z,1020.43
2018-01-08T10:28:05.036Z,1020.19
2018-01-08T10:29:05.012Z,1020.10
2018-01-08T10:30:04.989Z,1020.16
2018-01-08T10:31:04.974Z,1020.15
2018-01-08T10:32:04.952Z,1020.18
2018-01-08T10:33:04.940Z,1020.19
2018-01-08T10:34:04.915Z,1020.20
2018-01-08T10:35:04.904Z,1020.19
2018-01-08T10:36:04.880Z,1020.10
2018-01-08T10:37:04.862Z,1020.23
2018-01-08T10:38:04.845Z,1020.20
2018-01-08T10:39:04.825Z,1020.42
2018-01-08T10:40:04.816Z,1020.43
2018-01-08T10:41:04.792Z,1020.41
2018-01-08T10:42:04.773Z,1020.38
2018-01-08T10:43:04.761Z,1020.43
2018-01-08T10:44:04.742Z,1020.34
2018-01-08T10:45:04.735Z,1020.30
2018-01-08T10:46:04.706Z,1020.33
2018-01-08T10:47:04.693Z,1020.32
2018-01-08T10:48:04.677Z,1020.41
2018-01-08T10:49:04.665Z,1020.48
2018-01-08T10:50:04.645Z,1020.46
2018-01-08T10:51:04.633Z,1020.37
2018-01-08T10:52:04.618Z,1020.35
2018-01-08T10:53:04.604Z,1020.30
2018-01-08T10:54:04.582Z,1020.34
2018-01-08T10:55:04.571Z,1020.27
2018-01-08T10:56:04.563Z,1020.24
2018-01-08T10:57:04.541Z,1020.25
2018-01-08T10:58:04.522Z,1020.17
2018-01-08T10:59:04.511Z,1020.15
2018-01-08T11:00:04.499Z,1020.19
2018-01-08T11:01:04.480Z,1020.22
2018-01-08T11:02:04.459Z,1020.18
2018-01-08T11:03:04.446Z,1020.07
2018-01-08T11:04:04.431Z,1020.12
2018-01-08T11:05:04.431Z,1020.11
2018-01-08T11:06:04.399Z,1020.09
2018-01-08T11:07:04.385Z,1020.06
2018-01-08T11:08:04.364Z,1020.03
2018-01-08T11:09:04.361Z,1019.94
2018-01-08T11:10:04.335Z,1019.88
2018-01-08T11:11:04.321Z,1019.92
2018-01-08T11:12:04.313Z,1019.91
2018-01-08T11:13:04.291Z,1019.86
2018-01-08T11:14:04.274Z,1019.76
2018-01-08T11:15:04.253Z,1019.82
2018-01-08T11:16:04.243Z,1019.83
2018-01-08T11:17:04.222Z,1019.81
2018-01-08T11:18:04.204Z,1019.76
2018-01-08T11:19:04.192Z,1019.77
2018-01-08T11:20:04.182Z,1019.78
2018-01-08T11:21:04.156Z,1019.76
2018-01-08T11:22:04.142Z,1019.75
2018-01-08T11:23:04.121Z,1019.77
2018-01-08T11:24:04.111Z,1019.72
2018-01-08T11:25:04.092Z,1019.77
2018-01-08T11:26:04.078Z,1019.80
2018-01-08T11:27:04.062Z,1019.75
2018-01-08T11:28:04.049Z,1019.74
2018-01-08T11:29:04.025Z,1019.73
2018-01-08T11:30:04.011Z,1019.75
2018-01-08T11:31:03.990Z,1019.67
2018-01-08T11:32:03.983Z,1019.66
2018-01-08T11:33:03.959Z,1019.65
2018-01-08T11:34:03.939Z,1019.70
2018-01-08T11:35:03.925Z,1019.78
2018-01-08T11:36:03.909Z,1019.71
2018-01-08T11:37:03.906Z,1019.64
2018-01-08T11:38:03.878Z,1019.56
2018-01-08T11:39:03.866Z,1019.56
2018-01-08T11:40:03.851Z,1019.54
2018-01-08T11:41:03.833Z,1019.38
2018-01-08T11:42:03.823Z,1019.26
2018-01-08T11:43:03.810Z,1019.17
2018-01-08T11:44:03.790Z,1019.13
2018-01-08T11:45:03.780Z,1019.13
2018-01-08T11:46:03.760Z,1019.12
2018-01-08T11:47:03.742Z,1019.11
2018-01-08T11:48:03.729Z,1019.05
2018-01-08T11:49:03.709Z,1019.08
2018-01-08T11:50:03.693Z,1019.04
2018-01-08T11:51:03.833Z,1019.02
2018-01-08T11:52:03.665Z,1018.95
2018-01-08T11:53:03.652Z,1018.96
2018-01-08T11:54:03.638Z,1018.99
2018-01-08T11:55:03.668Z,1018.93
2018-01-08T11:56:03.600Z,1018.90
2018-01-08T11:57:03.595Z,1018.92
2018-01-08T11:58:03.570Z,1018.97
2018-01-08T11:59:03.561Z,1018.93
2018-01-08T12:00:03.541Z,1018.94
2018-01-08T12:01:03.523Z,1018.88
2018-01-08T12:02:03.514Z,1018.92
2018-01-08T12:03:03.497Z,1018.85
2018-01-08T12:04:03.482Z,1018.80
2018-01-08T12:05:03.471Z,1018.76